Pembroke, Maine
Current Conditions -  °F | °C
As of 8:00 PM on Saturday 20 Dec 2014 (Local Time) from CYSJ Reporting Station
Light Snow Light Snow  
Wind Chill: 28°   Ceiling: 1800
Heat Index: 28°   Visibility: 15mi
Dew Point: 27°   Wind: 3mph
Humidity: 93%   Direction: 20°NNE
Pressure: 30.35"   Gusts: NA
Location:  44.95°N, 67.16°W
Report Text: CYSJ 210100Z 02003KT 350V060 15SM -SN FEW006 OVC018 M02/M03 A3035 RMK SF2SC6 SLP283
Loading
Personal Weather Stations






























Interactive Weather Map New forecast layout! Learn more

10-Day Weather Forecast

Advertisements
Track Severe Weather on mobile